createdAt,value
2022-09-28T00:00:36.432Z,99.99
2022-09-28T00:01:36.474Z,99.99
2022-09-28T00:02:36.523Z,99.99
2022-09-28T00:03:37.432Z,99.99
2022-09-28T00:04:36.400Z,99.99
2022-09-28T00:05:36.388Z,99.99
2022-09-28T00:06:36.381Z,99.99
2022-09-28T00:07:36.373Z,99.99
2022-09-28T00:08:36.394Z,99.99
2022-09-28T00:09:36.357Z,99.99
2022-09-28T00:10:36.345Z,99.99
2022-09-28T00:11:36.344Z,99.99
2022-09-28T00:12:36.338Z,99.99
2022-09-28T00:13:36.351Z,99.99
2022-09-28T00:14:36.318Z,99.99
2022-09-28T00:15:36.310Z,99.99
2022-09-28T00:16:36.353Z,99.99
2022-09-28T00:17:36.296Z,99.99
2022-09-28T00:18:36.320Z,99.99
2022-09-28T00:19:36.277Z,99.99
2022-09-28T00:20:36.271Z,99.99
2022-09-28T00:21:36.259Z,99.99
2022-09-28T00:22:36.252Z,99.99
2022-09-28T00:23:36.271Z,99.99
2022-09-28T00:24:36.238Z,99.99
2022-09-28T00:25:36.234Z,99.99
2022-09-28T00:26:36.228Z,99.99
2022-09-28T00:27:36.218Z,99.99
2022-09-28T00:28:36.230Z,99.99
2022-09-28T00:29:36.197Z,99.99
2022-09-28T00:30:36.189Z,99.99
2022-09-28T00:31:36.240Z,99.99
2022-09-28T00:32:36.175Z,99.99
2022-09-28T00:33:36.196Z,99.99
2022-09-28T00:34:36.163Z,99.99
2022-09-28T00:35:36.149Z,99.99
2022-09-28T00:36:36.142Z,99.99
2022-09-28T00:37:36.137Z,99.99
2022-09-28T00:38:36.135Z,99.99
2022-09-28T00:39:36.144Z,99.99
2022-09-28T00:40:36.162Z,99.99
2022-09-28T00:41:36.104Z,99.99
2022-09-28T00:42:36.096Z,99.99
2022-09-28T00:43:36.086Z,99.99
2022-09-28T00:44:36.105Z,99.99
2022-09-28T00:45:36.141Z,99.99
2022-09-28T00:46:36.068Z,99.99
2022-09-28T00:47:36.055Z,99.99
2022-09-28T00:48:36.051Z,99.99
2022-09-28T00:49:36.066Z,99.99
2022-09-28T00:50:36.035Z,99.99
2022-09-28T00:51:36.026Z,99.99
2022-09-28T00:52:36.021Z,99.99
2022-09-28T00:53:36.011Z,99.99
2022-09-28T00:54:36.029Z,99.43
2022-09-28T00:55:36.005Z,99.95
2022-09-28T00:56:35.992Z,99.95
2022-09-28T00:57:35.986Z,99.74
2022-09-28T00:58:35.974Z,99.74
2022-09-28T00:59:35.989Z,99.99
2022-09-28T01:00:35.975Z,99.74
2022-09-28T01:01:35.952Z,99.99
2022-09-28T01:02:35.944Z,99.99
2022-09-28T01:03:35.936Z,99.99
2022-09-28T01:04:35.957Z,99.99
2022-09-28T01:05:35.922Z,99.99
2022-09-28T01:06:35.934Z,99.99
2022-09-28T01:07:35.910Z,99.99
2022-09-28T01:08:35.902Z,99.99
2022-09-28T01:09:35.916Z,99.99
2022-09-28T01:10:35.888Z,99.99
2022-09-28T01:11:35.950Z,99.99
2022-09-28T01:12:35.873Z,99.99
2022-09-28T01:13:35.864Z,99.99
2022-09-28T01:14:35.879Z,99.99
2022-09-28T01:15:35.846Z,99.99
2022-09-28T01:16:35.857Z,99.99
2022-09-28T01:17:35.832Z,99.99
2022-09-28T01:18:35.824Z,99.99
2022-09-28T01:19:35.846Z,99.99
2022-09-28T01:20:35.809Z,99.99
2022-09-28T01:21:35.799Z,99.84
2022-09-28T01:22:35.790Z,99.99
2022-09-28T01:23:35.827Z,99.99
2022-09-28T01:24:35.805Z,99.99
2022-09-28T01:25:35.769Z,99.99
2022-09-28T01:26:35.764Z,99.99
2022-09-28T01:27:35.753Z,99.99
2022-09-28T01:28:35.747Z,99.99
2022-09-28T01:29:35.735Z,99.99
2022-09-28T01:30:35.755Z,99.99
2022-09-28T01:31:35.796Z,99.99
2022-09-28T01:32:35.721Z,99.99
2022-09-28T01:33:35.709Z,99.99
2022-09-28T01:34:35.701Z,99.99
2022-09-28T01:35:35.718Z,99.99
2022-09-28T01:36:35.683Z,99.99
2022-09-28T01:37:35.680Z,99.99
2022-09-28T01:38:35.671Z,99.99
2022-09-28T01:39:35.759Z,99.99
2022-09-28T01:40:35.746Z,99.99
2022-09-28T01:41:35.648Z,99.99
2022-09-28T01:42:35.641Z,99.99
2022-09-28T01:43:35.630Z,99.99
2022-09-28T01:44:35.663Z,99.99
2022-09-28T01:45:35.729Z,99.99
2022-09-28T01:46:35.607Z,99.95
2022-09-28T01:47:35.599Z,99.99
2022-09-28T01:48:35.594Z,99.99
2022-09-28T01:49:35.617Z,99.99
2022-09-28T01:50:36.605Z,99.99
2022-09-28T01:51:35.572Z,99.95
2022-09-28T01:52:35.565Z,99.74
2022-09-28T01:53:35.560Z,99.99
2022-09-28T01:54:35.551Z,99.99
2022-09-28T01:55:35.572Z,99.99
2022-09-28T01:56:35.538Z,99.99
2022-09-28T01:57:35.531Z,99.99
2022-09-28T01:58:35.525Z,99.99
2022-09-28T01:59:35.510Z,99.99
2022-09-28T02:00:35.564Z,99.99
2022-09-28T02:01:36.496Z,99.99
2022-09-28T02:02:35.552Z,99.99
2022-09-28T02:03:35.486Z,99.99
2022-09-28T02:04:35.490Z,99.99
2022-09-28T02:05:35.490Z,99.99
2022-09-28T02:06:35.459Z,99.99
2022-09-28T02:07:35.447Z,99.99
2022-09-28T02:08:35.440Z,99.99
2022-09-28T02:09:35.434Z,99.99
2022-09-28T02:10:35.449Z,99.99
2022-09-28T02:11:35.418Z,99.99
2022-09-28T02:12:35.398Z,99.99
2022-09-28T02:13:36.397Z,99.99
2022-09-28T02:14:35.392Z,99.99
2022-09-28T02:15:35.407Z,99.99
2022-09-28T02:16:35.402Z,99.99
2022-09-28T02:17:35.368Z,99.99
2022-09-28T02:18:35.362Z,99.99
2022-09-28T02:19:35.357Z,99.99
2022-09-28T02:20:35.369Z,99.99
2022-09-28T02:21:35.339Z,99.99
2022-09-28T02:22:35.328Z,99.99
2022-09-28T02:23:35.320Z,99.99
2022-09-28T02:24:35.313Z,99.99
2022-09-28T02:25:35.333Z,99.99
2022-09-28T02:26:35.297Z,99.99
2022-09-28T02:27:35.291Z,99.99
2022-09-28T02:28:35.287Z,99.99
2022-09-28T02:29:35.274Z,99.99
2022-09-28T02:30:35.291Z,99.99
2022-09-28T02:31:35.337Z,99.99
2022-09-28T02:32:35.253Z,99.99
2022-09-28T02:33:35.241Z,99.99
2022-09-28T02:34:35.237Z,99.99
2022-09-28T02:35:35.255Z,99.99
2022-09-28T02:36:35.221Z,99.99
2022-09-28T02:37:35.210Z,99.99
2022-09-28T02:38:35.203Z,99.99
2022-09-28T02:39:35.200Z,99.99
2022-09-28T02:40:35.251Z,99.99
2022-09-28T02:41:35.182Z,99.99
2022-09-28T02:42:35.174Z,99.99
2022-09-28T02:43:35.164Z,99.99
2022-09-28T02:44:35.155Z,99.99
2022-09-28T02:45:35.189Z,99.99
2022-09-28T02:46:35.144Z,99.99
2022-09-28T02:47:35.134Z,99.99
2022-09-28T02:48:43.603Z,99.99
2022-09-28T02:49:37.120Z,99.99
2022-09-28T02:50:35.135Z,99.99
2022-09-28T02:51:35.104Z,99.99
2022-09-28T02:52:35.094Z,99.99
2022-09-28T02:53:35.079Z,99.99
2022-09-28T02:54:36.077Z,99.99
2022-09-28T02:55:35.093Z,99.99
2022-09-28T02:56:35.065Z,99.99
2022-09-28T02:57:35.054Z,99.99
2022-09-28T02:58:35.048Z,99.99
2022-09-28T02:59:35.043Z,99.99
2022-09-28T03:00:35.121Z,99.99
2022-09-28T03:01:35.024Z,99.99
2022-09-28T03:02:35.017Z,99.99
2022-09-28T03:03:35.009Z,99.99
2022-09-28T03:04:35.004Z,99.99
2022-09-28T03:05:35.025Z,99.99
2022-09-28T03:06:34.984Z,99.99
2022-09-28T03:07:34.987Z,99.99
2022-09-28T03:08:34.972Z,99.99
2022-09-28T03:09:34.965Z,99.99
2022-09-28T03:10:34.979Z,99.99
2022-09-28T03:11:34.949Z,99.99
2022-09-28T03:12:34.942Z,99.99
2022-09-28T03:13:34.929Z,99.99
2022-09-28T03:14:34.925Z,99.99
2022-09-28T03:15:34.938Z,99.99
2022-09-28T03:16:34.964Z,99.99
2022-09-28T03:17:34.899Z,99.99
2022-09-28T03:18:34.890Z,99.99
2022-09-28T03:19:34.891Z,99.99
2022-09-28T03:20:34.901Z,99.99
2022-09-28T03:21:34.870Z,99.99
2022-09-28T03:22:34.864Z,99.99
2022-09-28T03:23:34.854Z,99.99
2022-09-28T03:24:34.840Z,99.99
2022-09-28T03:25:34.865Z,99.99
2022-09-28T03:26:34.831Z,99.99
2022-09-28T03:27:34.813Z,99.99
2022-09-28T03:28:35.819Z,99.99
2022-09-28T03:29:34.810Z,99.99
2022-09-28T03:30:34.829Z,99.99
2022-09-28T03:31:34.810Z,99.99
2022-09-28T03:32:34.785Z,99.99
2022-09-28T03:33:34.779Z,99.99
2022-09-28T03:34:34.770Z,99.99
2022-09-28T03:35:34.786Z,99.99
2022-09-28T03:36:34.754Z,99.99
2022-09-28T03:37:34.747Z,99.99
2022-09-28T03:38:34.738Z,99.99
2022-09-28T03:39:34.733Z,99.99
2022-09-28T03:40:34.826Z,99.99
2022-09-28T03:41:34.720Z,99.99
2022-09-28T03:42:34.713Z,99.99
2022-09-28T03:43:34.701Z,99.99
2022-09-28T03:44:34.690Z,99.99
2022-09-28T03:45:34.751Z,99.99
2022-09-28T03:46:34.708Z,99.99
2022-09-28T03:47:34.673Z,99.99
2022-09-28T03:48:34.661Z,99.99
2022-09-28T03:49:34.655Z,99.99
2022-09-28T03:50:34.654Z,99.99
2022-09-28T03:51:34.662Z,99.99
2022-09-28T03:52:34.633Z,99.99
2022-09-28T03:53:34.622Z,99.99
2022-09-28T03:54:34.622Z,99.99
2022-09-28T03:55:34.608Z,99.99
2022-09-28T03:56:34.627Z,99.99
2022-09-28T03:57:34.593Z,99.99
2022-09-28T03:58:34.582Z,99.99
2022-09-28T03:59:34.578Z,99.99
2022-09-28T04:00:34.589Z,99.99
2022-09-28T04:01:34.640Z,99.99
2022-09-28T04:02:34.653Z,99.99
2022-09-28T04:03:34.547Z,99.99
2022-09-28T04:04:34.542Z,99.99
2022-09-28T04:05:34.535Z,99.99
2022-09-28T04:06:34.549Z,99.99
2022-09-28T04:07:34.518Z,99.99
2022-09-28T04:08:34.509Z,99.99
2022-09-28T04:09:34.491Z,99.99
2022-09-28T04:10:35.494Z,99.99
2022-09-28T04:11:43.014Z,99.99
2022-09-28T04:12:36.479Z,99.99
2022-09-28T04:13:34.479Z,99.99
2022-09-28T04:14:34.464Z,99.99
2022-09-28T04:15:34.458Z,99.99
2022-09-28T04:16:34.507Z,99.99
2022-09-28T04:17:39.196Z,99.99
2022-09-28T04:18:36.428Z,99.99
2022-09-28T04:19:34.424Z,99.99
2022-09-28T04:20:34.414Z,99.99
2022-09-28T04:21:34.435Z,99.99
2022-09-28T04:22:34.403Z,99.99
2022-09-28T04:23:34.392Z,99.99
2022-09-28T04:24:34.388Z,99.99
2022-09-28T04:25:34.374Z,99.99
2022-09-28T04:26:34.404Z,99.99
2022-09-28T04:27:34.359Z,99.99
2022-09-28T04:28:34.353Z,99.99
2022-09-28T04:29:34.335Z,99.99
2022-09-28T04:30:35.337Z,99.99
2022-09-28T04:31:34.442Z,99.99
2022-09-28T04:32:34.321Z,99.99
2022-09-28T04:33:34.310Z,99.99
2022-09-28T04:34:36.506Z,99.99
2022-09-28T04:35:35.296Z,99.99
2022-09-28T04:36:34.316Z,99.99
2022-09-28T04:37:34.284Z,99.99
2022-09-28T04:38:51.961Z,99.99
2022-09-28T04:39:36.267Z,99.99
2022-09-28T04:40:34.305Z,99.99
2022-09-28T04:41:34.274Z,99.99
2022-09-28T04:42:34.240Z,99.99
2022-09-28T04:43:34.237Z,99.99
2022-09-28T04:44:34.225Z,99.99
2022-09-28T04:45:34.299Z,99.99
2022-09-28T04:46:34.241Z,99.99
2022-09-28T04:47:34.197Z,99.99
2022-09-28T04:48:35.202Z,99.99
2022-09-28T04:49:34.195Z,99.99
2022-09-28T04:50:34.179Z,99.99
2022-09-28T04:51:34.201Z,99.99
2022-09-28T04:52:34.168Z,99.99
2022-09-28T04:53:34.164Z,99.99
2022-09-28T04:54:34.154Z,99.99
2022-09-28T04:55:34.186Z,99.99
2022-09-28T04:56:34.160Z,99.99
2022-09-28T04:57:34.126Z,99.99
2022-09-28T04:58:34.116Z,99.99
2022-09-28T04:59:34.112Z,99.99
2022-09-28T05:00:34.106Z,99.99
2022-09-28T05:01:34.216Z,99.99
2022-09-28T05:02:34.134Z,99.99
2022-09-28T05:03:34.087Z,99.99
2022-09-28T05:04:34.077Z,99.99
2022-09-28T05:05:34.068Z,99.99
2022-09-28T05:06:34.091Z,99.99
2022-09-28T05:07:34.061Z,99.99
2022-09-28T05:08:34.044Z,99.99
2022-09-28T05:09:38.298Z,99.99
2022-09-28T05:10:35.026Z,99.99
2022-09-28T05:11:34.045Z,99.99
2022-09-28T05:12:34.013Z,99.99
2022-09-28T05:13:34.010Z,99.99
2022-09-28T05:14:33.997Z,99.99
2022-09-28T05:15:33.990Z,99.99
2022-09-28T05:16:34.133Z,99.99
2022-09-28T05:17:33.975Z,99.99
2022-09-28T05:18:33.969Z,99.99
2022-09-28T05:19:33.962Z,99.99
2022-09-28T05:20:33.956Z,99.99
2022-09-28T05:21:33.973Z,99.99
2022-09-28T05:22:33.942Z,99.99
2022-09-28T05:23:34.675Z,99.99
2022-09-28T05:24:34.920Z,99.99
2022-09-28T05:25:33.910Z,99.99
2022-09-28T05:26:33.918Z,99.99
2022-09-28T05:27:34.897Z,99.99
2022-09-28T05:28:33.891Z,99.99
2022-09-28T05:29:33.882Z,99.99
2022-09-28T05:30:33.873Z,99.99
2022-09-28T05:31:33.917Z,99.99
2022-09-28T05:32:33.860Z,99.99
2022-09-28T05:33:33.857Z,99.99
2022-09-28T05:34:33.847Z,99.99
2022-09-28T05:35:33.836Z,99.99
2022-09-28T05:36:33.857Z,99.99
2022-09-28T05:37:33.821Z,99.99
2022-09-28T05:38:33.811Z,99.99
2022-09-28T05:39:33.805Z,99.99
2022-09-28T05:40:33.844Z,99.99
2022-09-28T05:41:33.816Z,99.99
2022-09-28T05:42:33.785Z,99.99
2022-09-28T05:43:33.792Z,99.99
2022-09-28T05:44:33.772Z,99.99
2022-09-28T05:45:33.857Z,99.99
2022-09-28T05:46:34.786Z,99.99
2022-09-28T05:47:33.744Z,99.99
2022-09-28T05:48:33.734Z,99.99
2022-09-28T05:49:33.725Z,99.99
2022-09-28T05:50:33.717Z,99.99
2022-09-28T05:51:33.737Z,99.99
2022-09-28T05:52:33.705Z,99.99
2022-09-28T05:53:33.692Z,99.99
2022-09-28T05:54:33.686Z,99.99
2022-09-28T05:55:33.755Z,99.99
2022-09-28T05:56:33.696Z,99.99
2022-09-28T05:57:33.661Z,99.99
2022-09-28T05:58:33.651Z,99.99
2022-09-28T05:59:33.644Z,99.99
2022-09-28T06:00:33.633Z,99.99
2022-09-28T06:01:33.703Z,99.99
2022-09-28T06:02:33.661Z,99.99
2022-09-28T06:03:33.617Z,99.99
2022-09-28T06:04:33.605Z,99.99
2022-09-28T06:05:33.615Z,99.99
2022-09-28T06:06:33.620Z,99.99
2022-09-28T06:07:33.585Z,99.99
2022-09-28T06:08:33.577Z,99.99
2022-09-28T06:09:33.569Z,99.99
2022-09-28T06:10:33.559Z,99.99
2022-09-28T06:11:33.584Z,99.99
2022-09-28T06:12:33.544Z,99.99
2022-09-28T06:13:33.539Z,99.99
2022-09-28T06:14:33.528Z,99.99
2022-09-28T06:15:33.523Z,99.99
2022-09-28T06:16:33.591Z,99.99
2022-09-28T06:17:33.506Z,99.99
2022-09-28T06:18:33.495Z,99.99
2022-09-28T06:19:33.493Z,99.99
2022-09-28T06:20:33.482Z,99.99
2022-09-28T06:21:33.499Z,99.99
2022-09-28T06:22:33.465Z,99.99
2022-09-28T06:23:33.458Z,99.99
2022-09-28T06:24:33.445Z,99.99
2022-09-28T06:25:33.439Z,99.90
2022-09-28T06:26:33.460Z,99.90
2022-09-28T06:27:33.425Z,99.85
2022-09-28T06:28:33.417Z,99.85
2022-09-28T06:29:33.415Z,99.38
2022-09-28T06:30:33.486Z,99.79
2022-09-28T06:31:33.426Z,99.69
2022-09-28T06:32:33.383Z,99.59
2022-09-28T06:33:33.377Z,99.65
2022-09-28T06:34:33.381Z,99.44
2022-09-28T06:35:33.361Z,99.44
2022-09-28T06:36:33.382Z,99.69
2022-09-28T06:37:33.348Z,99.34
2022-09-28T06:38:33.343Z,99.18
2022-09-28T06:39:33.332Z,99.34
2022-09-28T06:40:33.368Z,99.69
2022-09-28T06:41:33.348Z,99.18
2022-09-28T06:42:33.318Z,99.13
2022-09-28T06:43:34.493Z,98.87
2022-09-28T06:44:34.293Z,98.42
2022-09-28T06:45:33.288Z,97.49
2022-09-28T06:46:33.376Z,97.49
2022-09-28T06:47:33.274Z,97.49
2022-09-28T06:48:33.264Z,97.39
2022-09-28T06:49:33.256Z,97.39
2022-09-28T06:50:33.250Z,97.60
2022-09-28T06:51:33.268Z,97.70
2022-09-28T06:52:33.232Z,97.39
2022-09-28T06:53:33.229Z,97.75
2022-09-28T06:54:33.215Z,98.00
2022-09-28T06:55:33.211Z,97.86
2022-09-28T06:56:33.289Z,98.07
2022-09-28T06:57:33.199Z,97.55
2022-09-28T06:58:33.185Z,97.75
2022-09-28T06:59:33.183Z,97.14
2022-09-28T07:00:33.175Z,97.14
2022-09-28T07:01:33.222Z,96.42
2022-09-28T07:02:33.197Z,95.61
2022-09-28T07:03:33.149Z,96.42
2022-09-28T07:04:33.147Z,97.45
2022-09-28T07:05:33.138Z,97.20
2022-09-28T07:06:33.154Z,97.04
2022-09-28T07:07:33.123Z,96.32
2022-09-28T07:08:33.118Z,96.48
2022-09-28T07:09:35.059Z,96.99
2022-09-28T07:10:34.104Z,97.36
2022-09-28T07:11:33.113Z,96.95
2022-09-28T07:12:33.086Z,96.23
2022-09-28T07:13:49.870Z,96.33
2022-09-28T07:14:47.461Z,95.15
2022-09-28T07:15:35.060Z,94.90
2022-09-28T07:16:57.633Z,94.33
2022-09-28T07:17:42.224Z,95.21
2022-09-28T07:18:34.037Z,95.00
2022-09-28T07:19:33.023Z,94.08
2022-09-28T07:20:36.082Z,94.14
2022-09-28T07:21:34.029Z,94.55
2022-09-28T07:22:42.209Z,93.93
2022-09-28T07:23:46.491Z,93.73
2022-09-28T07:24:34.990Z,94.34
2022-09-28T07:25:32.987Z,93.52
2022-09-28T07:26:32.991Z,93.73
2022-09-28T07:27:32.969Z,93.89
2022-09-28T07:28:32.957Z,94.04
2022-09-28T07:29:32.946Z,94.55
2022-09-28T07:30:32.987Z,94.34
2022-09-28T07:31:32.956Z,94.55
2022-09-28T07:32:32.929Z,93.43
2022-09-28T07:33:32.931Z,93.43
2022-09-28T07:34:32.896Z,94.34
2022-09-28T07:35:33.896Z,94.18
2022-09-28T07:36:32.918Z,94.59
2022-09-28T07:37:32.881Z,94.49
2022-09-28T07:38:32.875Z,95.00
2022-09-28T07:39:32.869Z,95.31
2022-09-28T07:40:32.882Z,95.21
2022-09-28T07:41:32.881Z,94.90
2022-09-28T07:42:32.852Z,94.90
2022-09-28T07:43:32.844Z,94.80
2022-09-28T07:44:32.835Z,95.10
2022-09-28T07:45:32.883Z,95.21
2022-09-28T07:46:32.840Z,94.80
2022-09-28T07:47:35.231Z,95.56
2022-09-28T07:48:33.802Z,93.98
2022-09-28T07:49:32.792Z,94.14
2022-09-28T07:50:32.785Z,94.34
2022-09-28T07:51:32.808Z,94.14
2022-09-28T07:52:32.768Z,94.24
2022-09-28T07:53:32.757Z,94.10
2022-09-28T07:54:32.754Z,93.18
2022-09-28T07:55:33.389Z,93.28
2022-09-28T07:56:32.764Z,93.18
2022-09-28T07:57:32.742Z,93.07
2022-09-28T07:58:32.726Z,92.97
2022-09-28T07:59:32.713Z,92.21
2022-09-28T08:00:34.215Z,92.07
2022-09-28T08:01:33.782Z,91.96
2022-09-28T08:02:32.741Z,91.11
2022-09-28T08:03:32.686Z,90.14
2022-09-28T08:04:32.678Z,89.53
2022-09-28T08:05:32.673Z,88.88
2022-09-28T08:06:32.664Z,86.83
2022-09-28T08:07:32.683Z,86.43
2022-09-28T08:08:32.653Z,86.53
2022-09-28T08:09:32.642Z,86.59
2022-09-28T08:10:32.635Z,88.22
2022-09-28T08:11:32.625Z,86.65
2022-09-28T08:12:32.640Z,86.15
2022-09-28T08:13:32.615Z,85.49
2022-09-28T08:14:32.599Z,84.72
2022-09-28T08:15:32.601Z,83.39
2022-09-28T08:16:32.719Z,84.11
2022-09-28T08:17:32.608Z,84.82
2022-09-28T08:18:32.573Z,85.63
2022-09-28T08:19:32.565Z,84.67
2022-09-28T08:20:32.560Z,83.21
2022-09-28T08:21:32.547Z,83.01
2022-09-28T08:22:32.559Z,82.94
2022-09-28T08:23:32.528Z,84.67
2022-09-28T08:24:32.519Z,83.80
2022-09-28T08:25:32.513Z,84.96
2022-09-28T08:26:32.506Z,84.04
2022-09-28T08:27:32.520Z,86.33
2022-09-28T08:28:32.493Z,87.70
2022-09-28T08:29:32.483Z,88.00
2022-09-28T08:30:32.492Z,88.41
2022-09-28T08:31:32.468Z,88.92
2022-09-28T08:32:32.481Z,89.12
2022-09-28T08:33:32.449Z,89.02
2022-09-28T08:34:32.444Z,87.90
2022-09-28T08:35:32.438Z,88.51
2022-09-28T08:36:32.461Z,88.92
2022-09-28T08:37:32.441Z,89.32
2022-09-28T08:38:32.408Z,88.61
2022-09-28T08:39:32.403Z,88.20
2022-09-28T08:40:32.440Z,87.59
2022-09-28T08:41:32.411Z,87.38
2022-09-28T08:42:32.380Z,87.94
2022-09-28T08:43:32.374Z,87.90
2022-09-28T08:44:32.412Z,87.49
2022-09-28T08:45:32.356Z,87.70
2022-09-28T08:46:32.408Z,88.10
2022-09-28T08:47:32.343Z,87.96
2022-09-28T08:48:32.334Z,87.41
2022-09-28T08:49:32.680Z,86.65
2022-09-28T08:50:32.318Z,84.94
2022-09-28T08:51:32.333Z,83.07
2022-09-28T08:52:32.302Z,83.13
2022-09-28T08:53:32.288Z,80.78
2022-09-28T08:54:32.286Z,78.23
2022-09-28T08:55:32.275Z,74.24
2022-09-28T08:56:32.302Z,75.15
2022-09-28T08:57:32.263Z,75.79
2022-09-28T08:58:32.251Z,73.39
2022-09-28T08:59:32.249Z,70.19
2022-09-28T09:00:32.238Z,69.95
2022-09-28T09:01:32.325Z,67.93
2022-09-28T09:02:32.290Z,70.09
2022-09-28T09:03:32.215Z,72.01
2022-09-28T09:04:32.205Z,72.99
2022-09-28T09:05:32.199Z,74.38
2022-09-28T09:06:32.215Z,74.78
2022-09-28T09:07:32.182Z,74.79
2022-09-28T09:08:32.177Z,76.55
2022-09-28T09:09:32.168Z,79.33
2022-09-28T09:10:32.165Z,80.18
2022-09-28T09:11:33.183Z,78.61
2022-09-28T09:12:32.142Z,76.37
2022-09-28T09:13:32.137Z,75.35
2022-09-28T09:14:32.129Z,74.07
2022-09-28T09:15:32.121Z,70.69
2022-09-28T09:16:32.171Z,70.66
2022-09-28T09:17:32.104Z,72.38
2022-09-28T09:18:32.099Z,74.10
2022-09-28T09:19:32.091Z,71.64
2022-09-28T09:20:32.088Z,74.30
2022-09-28T09:21:32.104Z,74.98
2022-09-28T09:22:32.064Z,73.05
2022-09-28T09:23:32.056Z,72.78
2022-09-28T09:24:32.048Z,74.34
2022-09-28T09:25:35.405Z,74.21
2022-09-28T09:26:34.056Z,75.22
2022-09-28T09:27:32.032Z,75.67
2022-09-28T09:28:32.018Z,76.72
2022-09-28T09:29:32.006Z,74.31
2022-09-28T09:30:32.107Z,75.12
2022-09-28T09:31:32.024Z,77.47
2022-09-28T09:32:31.982Z,77.06
2022-09-28T09:33:31.978Z,75.37
2022-09-28T09:34:31.970Z,75.53
2022-09-28T09:35:31.965Z,74.65
2022-09-28T09:36:31.979Z,76.45
2022-09-28T09:37:31.948Z,74.92
2022-09-28T09:38:31.938Z,74.62
2022-09-28T09:39:31.933Z,75.09
2022-09-28T09:40:31.934Z,75.09
2022-09-28T09:41:31.938Z,75.29
2022-09-28T09:42:31.909Z,75.40
2022-09-28T09:43:32.022Z,75.40
2022-09-28T09:44:31.895Z,75.97
2022-09-28T09:45:31.892Z,76.92
2022-09-28T09:46:31.917Z,75.53
2022-09-28T09:47:31.871Z,78.38
2022-09-28T09:48:31.868Z,77.60
2022-09-28T09:49:31.861Z,77.03
2022-09-28T09:50:31.860Z,78.31
2022-09-28T09:51:31.866Z,79.13
2022-09-28T09:52:31.829Z,79.53
2022-09-28T09:53:34.838Z,80.76
2022-09-28T09:54:32.825Z,80.55
2022-09-28T09:55:31.812Z,79.60
2022-09-28T09:56:31.827Z,78.64
2022-09-28T09:57:31.801Z,79.59
2022-09-28T09:58:31.797Z,79.28
2022-09-28T09:59:31.772Z,78.98
2022-09-28T10:00:31.769Z,78.88
2022-09-28T10:01:31.866Z,78.61
2022-09-28T10:02:31.827Z,78.85
2022-09-28T10:03:31.750Z,80.68
2022-09-28T10:04:31.739Z,79.90
2022-09-28T10:05:31.728Z,80.85
2022-09-28T10:06:31.753Z,81.46
2022-09-28T10:07:31.711Z,81.67
2022-09-28T10:08:31.709Z,81.71
2022-09-28T10:09:31.700Z,80.83
2022-09-28T10:10:31.686Z,82.87
2022-09-28T10:11:31.710Z,80.66
2022-09-28T10:12:31.680Z,81.62
2022-09-28T10:13:31.661Z,82.37
2022-09-28T10:14:31.650Z,82.78
2022-09-28T10:15:31.646Z,82.00
2022-09-28T10:16:31.740Z,81.80
2022-09-28T10:17:31.635Z,82.82
2022-09-28T10:18:31.633Z,82.55
2022-09-28T10:19:31.623Z,81.43
2022-09-28T10:20:31.609Z,81.63
2022-09-28T10:21:31.602Z,82.82
2022-09-28T10:22:31.623Z,82.10
2022-09-28T10:23:31.600Z,81.45
2022-09-28T10:24:31.592Z,82.78
2022-09-28T10:25:31.574Z,82.07
2022-09-28T10:26:31.566Z,81.25
2022-09-28T10:27:31.588Z,80.13
2022-09-28T10:28:31.561Z,81.25
2022-09-28T10:29:31.554Z,80.84
2022-09-28T10:30:31.583Z,81.09
2022-09-28T10:31:31.529Z,82.78
2022-09-28T10:32:31.544Z,81.56
2022-09-28T10:33:31.516Z,81.86
2022-09-28T10:34:31.509Z,82.68
2022-09-28T10:35:31.501Z,82.88
2022-09-28T10:36:31.490Z,82.78
2022-09-28T10:37:31.502Z,83.09
2022-09-28T10:38:31.472Z,83.18
2022-09-28T10:39:31.467Z,83.43
2022-09-28T10:40:31.532Z,83.39
2022-09-28T10:41:31.452Z,83.49
2022-09-28T10:42:31.468Z,83.49
2022-09-28T10:43:31.438Z,83.39
2022-09-28T10:44:31.424Z,83.18
2022-09-28T10:45:31.418Z,82.50
2022-09-28T10:46:31.499Z,81.79
2022-09-28T10:47:32.420Z,80.87
2022-09-28T10:48:31.394Z,80.11
2022-09-28T10:49:31.395Z,79.20
2022-09-28T10:50:31.376Z,79.91
2022-09-28T10:51:31.388Z,81.10
2022-09-28T10:52:31.378Z,81.10
2022-09-28T10:53:31.351Z,79.88
2022-09-28T10:54:31.344Z,81.20
2022-09-28T10:55:31.329Z,81.16
2022-09-28T10:56:31.329Z,81.73
2022-09-28T10:57:31.353Z,81.02
2022-09-28T10:58:31.314Z,81.39
2022-09-28T10:59:31.336Z,80.44
2022-09-28T11:00:31.302Z,79.18
2022-09-28T11:01:31.397Z,78.88
2022-09-28T11:02:35.462Z,78.44
2022-09-28T11:03:32.272Z,78.80
2022-09-28T11:04:31.274Z,75.12
2022-09-28T11:05:31.261Z,76.84
2022-09-28T11:06:31.266Z,76.64
2022-09-28T11:07:31.266Z,75.28
2022-09-28T11:08:31.241Z,76.29
2022-09-28T11:09:31.509Z,75.18
2022-09-28T11:10:31.218Z,74.17
2022-09-28T11:11:31.220Z,72.92
2022-09-28T11:12:31.228Z,76.06
2022-09-28T11:13:31.196Z,74.98
2022-09-28T11:14:31.195Z,71.06
2022-09-28T11:15:31.200Z,73.60
2022-09-28T11:16:31.277Z,73.56
2022-09-28T11:17:31.192Z,74.48
2022-09-28T11:18:31.167Z,76.20
2022-09-28T11:19:31.167Z,71.94
2022-09-28T11:20:31.157Z,75.04
2022-09-28T11:21:31.156Z,74.17
2022-09-28T11:22:31.183Z,71.37
2022-09-28T11:23:31.125Z,72.11
2022-09-28T11:24:31.108Z,74.27
2022-09-28T11:25:31.104Z,72.17
2022-09-28T11:26:31.099Z,71.94
2022-09-28T11:27:31.107Z,74.01
2022-09-28T11:28:31.086Z,74.82
2022-09-28T11:29:31.070Z,74.82
2022-09-28T11:30:31.132Z,74.38
2022-09-28T11:31:31.052Z,74.44
2022-09-28T11:32:31.067Z,74.41
2022-09-28T11:33:31.057Z,73.50
2022-09-28T11:34:54.663Z,73.26
2022-09-28T11:35:33.023Z,72.72
2022-09-28T11:36:31.011Z,73.29
2022-09-28T11:37:31.032Z,74.14
2022-09-28T11:38:30.997Z,74.24
2022-09-28T11:39:30.991Z,73.16
2022-09-28T11:40:31.057Z,72.85
2022-09-28T11:41:30.978Z,74.68
2022-09-28T11:42:30.995Z,74.71
2022-09-28T11:43:30.965Z,75.70
2022-09-28T11:44:33.333Z,75.52
2022-09-28T11:45:31.958Z,74.31
2022-09-28T11:46:31.007Z,74.62
2022-09-28T11:47:30.963Z,75.83
2022-09-28T11:48:30.928Z,75.32
2022-09-28T11:49:30.911Z,74.14
2022-09-28T11:50:30.916Z,74.99
2022-09-28T11:51:30.899Z,76.10
2022-09-28T11:52:30.922Z,75.29
2022-09-28T11:53:30.890Z,76.31
2022-09-28T11:54:30.885Z,75.94
2022-09-28T11:55:30.877Z,76.65
2022-09-28T11:56:30.860Z,76.89
2022-09-28T11:57:30.878Z,76.52
2022-09-28T11:58:30.846Z,77.84
2022-09-28T11:59:30.836Z,78.45
2022-09-28T12:00:30.829Z,79.47
2022-09-28T12:01:30.823Z,79.27
2022-09-28T12:02:30.919Z,78.66
2022-09-28T12:03:30.969Z,79.47
2022-09-28T12:04:30.798Z,79.47
2022-09-28T12:05:30.792Z,79.68
2022-09-28T12:06:30.784Z,80.08
2022-09-28T12:07:30.804Z,80.29
2022-09-28T12:08:30.769Z,80.18
2022-09-28T12:09:30.792Z,78.55
2022-09-28T12:10:30.754Z,79.37
2022-09-28T12:11:30.746Z,79.37
2022-09-28T12:12:30.768Z,79.74
2022-09-28T12:13:30.725Z,79.98
2022-09-28T12:14:30.726Z,79.37
2022-09-28T12:15:42.209Z,79.74
2022-09-28T12:17:03.616Z,79.43
2022-09-28T12:17:32.764Z,80.35
2022-09-28T12:18:30.688Z,80.24
2022-09-28T12:19:30.683Z,78.72
2022-09-28T12:20:30.697Z,78.52
2022-09-28T12:21:30.672Z,78.72
2022-09-28T12:22:30.686Z,79.13
2022-09-28T12:23:30.652Z,78.82
2022-09-28T12:24:30.647Z,77.47
2022-09-28T12:25:30.638Z,78.41
2022-09-28T12:26:34.638Z,78.82
2022-09-28T12:27:31.640Z,79.37
2022-09-28T12:28:30.614Z,78.35
2022-09-28T12:29:30.599Z,79.47
2022-09-28T12:30:30.635Z,79.81
2022-09-28T12:31:30.586Z,81.85
2022-09-28T12:32:30.604Z,81.07
2022-09-28T12:33:30.573Z,83.01
2022-09-28T12:34:30.564Z,83.48
2022-09-28T12:35:30.564Z,84.50
2022-09-28T12:36:30.550Z,83.72
2022-09-28T12:37:30.570Z,82.90
2022-09-28T12:38:30.531Z,83.04
2022-09-28T12:39:46.840Z,84.82
2022-09-28T12:40:32.582Z,85.84
2022-09-28T12:41:30.513Z,85.22
2022-09-28T12:42:30.533Z,85.47
2022-09-28T12:43:30.502Z,86.59
2022-09-28T12:44:30.488Z,84.86
2022-09-28T12:45:38.451Z,85.51
2022-09-28T12:46:31.579Z,85.57
2022-09-28T12:47:30.489Z,85.82
2022-09-28T12:48:30.483Z,85.21
2022-09-28T12:50:33.441Z,86.08
2022-09-28T12:50:42.716Z,87.55
2022-09-28T12:51:32.427Z,88.12
2022-09-28T12:52:30.545Z,86.08